Time;durP1;ratioP1;P1;durP2;ratioP2;P2;SDS_P1;SDS_P2;PMS_P1;PMS_P2;Temp;Humidity;BMP_temperature;BMP_pressure;BME280_temperature;BME280_humidity;BME280_pressure;Samples;Min_cycle;Max_cycle;Signal;HPM_P1;HPM_P2
2023/08/03 00:00:01;;;;;;;0.00;0.00;;;17.00;90.90;;;;;;4998622;28;20039;-69
2023/08/03 00:02:28;;;;;;;0.10;0.10;;;17.00;91.00;;;;;;4993892;28;20046;-69
2023/08/03 00:04:53;;;;;;;0.00;0.00;;;17.00;91.00;;;;;;4991052;28;20079;-69
2023/08/03 00:07:19;;;;;;;0.00;0.00;;;17.00;91.10;;;;;;5002865;28;20509;-69
2023/08/03 00:09:47;;;;;;;0.00;0.00;;;17.10;91.20;;;;;;4999714;28;20042;-69
2023/08/03 00:12:13;;;;;;;0.00;0.00;;;17.00;91.30;;;;;;5005087;28;20088;-69
2023/08/03 00:14:38;;;;;;;0.00;0.00;;;17.00;91.30;;;;;;5010812;28;20156;-69
2023/08/03 00:17:04;;;;;;;0.00;0.00;;;17.00;91.30;;;;;;5010177;28;20117;-69
2023/08/03 00:19:30;;;;;;;0.00;0.00;;;17.00;91.30;;;;;;5010894;28;20584;-69
2023/08/03 00:21:55;;;;;;;0.00;0.00;;;17.00;91.30;;;;;;5010335;28;20037;-70
2023/08/03 00:24:21;;;;;;;0.00;0.00;;;17.00;91.20;;;;;;5009920;28;20069;-69
2023/08/03 00:26:48;;;;;;;0.00;0.00;;;17.10;91.20;;;;;;5010876;28;20049;-69
2023/08/03 00:29:13;;;;;;;0.00;0.00;;;17.10;91.10;;;;;;5010723;28;20042;-69
2023/08/03 00:31:39;;;;;;;0.00;0.00;;;17.10;91.10;;;;;;4994394;28;20407;-69
2023/08/03 00:34:04;;;;;;;0.00;0.00;;;17.10;91.20;;;;;;5010712;28;20867;-69
2023/08/03 00:36:30;;;;;;;0.00;0.00;;;17.10;91.10;;;;;;5010440;28;20521;-69
2023/08/03 00:38:55;;;;;;;0.00;0.00;;;17.10;91.00;;;;;;5010021;28;20399;-69
2023/08/03 00:41:21;;;;;;;0.00;0.00;;;17.10;91.00;;;;;;5010291;28;20446;-69
2023/08/03 00:43:46;;;;;;;0.00;0.00;;;17.10;90.90;;;;;;5010327;28;20502;-69
2023/08/03 00:46:12;;;;;;;0.00;0.00;;;17.10;91.10;;;;;;5010167;28;20033;-69
2023/08/03 00:48:37;;;;;;;0.00;0.00;;;17.10;91.20;;;;;;5010353;28;20119;-69
2023/08/03 00:51:03;;;;;;;0.00;0.00;;;17.10;91.30;;;;;;5007527;28;20786;-69
2023/08/03 00:53:30;;;;;;;0.00;0.00;;;17.10;91.30;;;;;;4997343;28;20542;-70
2023/08/03 00:55:55;;;;;;;0.00;0.00;;;17.10;91.30;;;;;;5009530;28;20376;-70
2023/08/03 00:58:21;;;;;;;0.00;0.00;;;17.10;91.30;;;;;;5002957;28;20041;-70
2023/08/03 01:00:46;;;;;;;0.00;0.00;;;17.10;91.30;;;;;;5002188;28;20045;-70
2023/08/03 01:03:12;;;;;;;0.00;0.00;;;17.10;91.30;;;;;;5000737;28;20046;-70
2023/08/03 01:05:37;;;;;;;0.00;0.00;;;17.10;91.20;;;;;;5009923;28;20049;-70
2023/08/03 01:08:03;;;;;;;0.00;0.00;;;17.10;91.20;;;;;;4991017;28;20077;-70
2023/08/03 01:10:29;;;;;;;0.00;0.00;;;17.10;91.10;;;;;;4994159;28;20042;-69
2023/08/03 01:12:56;;;;;;;0.00;0.00;;;17.10;91.00;;;;;;5009468;28;20045;-69
2023/08/03 01:15:22;;;;;;;0.00;0.00;;;17.10;91.10;;;;;;5009399;28;20038;-69
2023/08/03 01:17:48;;;;;;;0.00;0.00;;;17.10;91.10;;;;;;4997999;28;20049;-69
2023/08/03 01:20:16;;;;;;;0.00;0.00;;;17.10;91.10;;;;;;4991885;28;20046;-69
2023/08/03 01:22:43;;;;;;;0.00;0.00;;;17.10;91.10;;;;;;5009198;28;20056;-69
2023/08/03 01:25:09;;;;;;;0.00;0.00;;;17.10;91.10;;;;;;5009157;28;20491;-69
2023/08/03 01:27:35;;;;;;;0.00;0.00;;;17.10;91.00;;;;;;5009504;28;20038;-69
2023/08/03 01:30:00;;;;;;;0.00;0.00;;;17.10;91.00;;;;;;5009591;28;20099;-69
2023/08/03 01:32:26;;;;;;;0.00;0.00;;;17.10;91.00;;;;;;5009157;28;20045;-69
2023/08/03 01:34:52;;;;;;;0.00;0.00;;;17.10;91.00;;;;;;5009436;28;20053;-69
2023/08/03 01:37:18;;;;;;;0.00;0.00;;;17.10;91.00;;;;;;5006329;28;20038;-69
2023/08/03 01:39:47;;;;;;;0.00;0.00;;;17.20;91.00;;;;;;4990157;28;20089;-69
2023/08/03 01:42:14;;;;;;;0.03;0.03;;;17.20;91.00;;;;;;4996178;28;20042;-70
2023/08/03 01:44:40;;;;;;;0.00;0.00;;;17.20;90.90;;;;;;4994432;28;20042;-69
2023/08/03 01:47:06;;;;;;;0.00;0.00;;;17.20;90.90;;;;;;4990011;28;20038;-69
2023/08/03 01:49:33;;;;;;;0.00;0.00;;;17.20;90.90;;;;;;5007267;28;20403;-69
2023/08/03 01:51:59;;;;;;;0.00;0.00;;;17.20;90.90;;;;;;5009315;28;20133;-69
2023/08/03 01:54:25;;;;;;;0.00;0.00;;;17.20;91.00;;;;;;5009405;28;20497;-70
2023/08/03 01:56:52;;;;;;;0.00;0.00;;;17.20;91.00;;;;;;5005063;28;20042;-70
2023/08/03 01:59:18;;;;;;;0.00;0.00;;;17.20;90.90;;;;;;4998248;28;20046;-70
2023/08/03 02:01:43;;;;;;;0.00;0.00;;;17.30;90.90;;;;;;4994922;28;20042;-70
2023/08/03 02:04:09;;;;;;;0.00;0.00;;;17.20;90.90;;;;;;5009300;28;20701;-70
2023/08/03 02:06:36;;;;;;;0.00;0.00;;;17.30;90.90;;;;;;5005275;28;20388;-70
2023/08/03 02:09:03;;;;;;;0.10;0.10;;;17.30;90.90;;;;;;4989726;28;20104;-69
2023/08/03 02:11:28;;;;;;;0.00;0.00;;;17.30;90.80;;;;;;4999646;28;20041;-70
2023/08/03 02:13:54;;;;;;;0.08;0.08;;;17.30;90.90;;;;;;4984563;28;21052;-70
2023/08/03 02:16:19;;;;;;;0.00;0.00;;;17.30;90.90;;;;;;5013254;28;20072;-70
2023/08/03 02:18:45;;;;;;;0.00;0.00;;;17.20;91.00;;;;;;5007552;28;20183;-70
2023/08/03 02:21:11;;;;;;;0.00;0.00;;;17.20;91.00;;;;;;5001933;28;20089;-69
2023/08/03 02:23:36;;;;;;;0.00;0.00;;;17.20;91.00;;;;;;5011214;28;20053;-69
2023/08/03 02:26:03;;;;;;;0.00;0.00;;;17.20;91.10;;;;;;5012625;28;20077;-69
2023/08/03 02:28:32;;;;;;;0.00;0.00;;;17.20;91.00;;;;;;5010205;28;20570;-69
2023/08/03 02:30:58;;;;;;;0.00;0.00;;;17.10;91.30;;;;;;5006625;28;20124;-70
2023/08/03 02:33:25;;;;;;;0.00;0.00;;;17.10;91.30;;;;;;5011846;28;20057;-70
2023/08/03 02:35:50;;;;;;;0.32;0.32;;;17.00;91.40;;;;;;5012521;28;20233;-69
2023/08/03 02:38:16;;;;;;;0.00;0.00;;;17.00;91.50;;;;;;5012269;28;20045;-69
2023/08/03 02:40:41;;;;;;;0.00;0.00;;;16.90;91.40;;;;;;5013141;28;20054;-69
2023/08/03 02:43:07;;;;;;;0.00;0.00;;;16.90;91.50;;;;;;5011830;28;20517;-69
2023/08/03 02:45:33;;;;;;;0.00;0.00;;;16.90;91.40;;;;;;5012030;28;20129;-69
2023/08/03 02:47:58;;;;;;;0.00;0.00;;;16.80;91.40;;;;;;5012563;28;20042;-70
2023/08/03 02:50:24;;;;;;;0.00;0.00;;;16.80;91.40;;;;;;5002898;28;20042;-69
2023/08/03 02:52:49;;;;;;;0.00;0.00;;;16.70;91.40;;;;;;5012473;28;20054;-69
2023/08/03 02:55:16;;;;;;;0.00;0.00;;;16.60;91.50;;;;;;5011976;28;20136;-69
2023/08/03 02:57:42;;;;;;;0.00;0.00;;;16.70;91.70;;;;;;5005278;28;20031;-69
2023/08/03 03:00:09;;;;;;;0.00;0.00;;;16.60;91.60;;;;;;5006939;28;20042;-70
2023/08/03 03:02:36;;;;;;;0.00;0.00;;;16.60;91.80;;;;;;5012113;28;20087;-69
2023/08/03 03:05:02;;;;;;;0.00;0.00;;;16.60;91.90;;;;;;5006678;28;20050;-69
2023/08/03 03:07:31;;;;;;;0.00;0.00;;;16.60;91.90;;;;;;5001719;28;20360;-70
2023/08/03 03:09:57;;;;;;;0.00;0.00;;;16.50;92.00;;;;;;5008552;28;20078;-70
2023/08/03 03:12:22;;;;;;;0.00;0.00;;;16.60;92.00;;;;;;5011763;28;20534;-70
2023/08/03 03:14:48;;;;;;;0.10;0.10;;;16.60;91.90;;;;;;5008353;28;20034;-70
2023/08/03 03:17:14;;;;;;;0.00;0.00;;;16.60;92.10;;;;;;5011326;28;20390;-70
2023/08/03 03:19:40;;;;;;;0.00;0.00;;;16.60;92.10;;;;;;5002836;28;20069;-70
2023/08/03 03:22:06;;;;;;;0.00;0.00;;;16.60;92.20;;;;;;5002017;28;20497;-70
2023/08/03 03:24:32;;;;;;;0.00;0.00;;;16.60;92.20;;;;;;4992732;28;20058;-70
2023/08/03 03:26:57;;;;;;;0.00;0.00;;;16.70;92.20;;;;;;5008230;28;20426;-70
2023/08/03 03:29:23;;;;;;;0.00;0.00;;;16.80;92.30;;;;;;5012045;28;20038;-70
2023/08/03 03:31:48;;;;;;;0.00;0.00;;;16.80;92.30;;;;;;5007733;28;20042;-71
2023/08/03 03:34:14;;;;;;;0.10;0.10;;;16.80;92.30;;;;;;5011146;28;20030;-70
2023/08/03 03:36:39;;;;;;;0.00;0.00;;;16.80;92.30;;;;;;5011402;28;20073;-70
2023/08/03 03:39:05;;;;;;;0.50;0.50;;;16.90;92.30;;;;;;5011856;28;20044;-71
2023/08/03 03:41:31;;;;;;;0.00;0.00;;;16.90;92.70;;;;;;5012847;28;20491;-70
2023/08/03 03:43:56;;;;;;;0.00;0.00;;;16.90;92.50;;;;;;5012532;28;20932;-70
2023/08/03 03:46:22;;;;;;;0.00;0.00;;;16.70;92.90;;;;;;5008659;28;20786;-70
2023/08/03 03:48:47;;;;;;;0.00;0.00;;;16.60;93.00;;;;;;4992531;28;20042;-70
2023/08/03 03:51:14;;;;;;;0.00;0.00;;;16.50;93.10;;;;;;4996793;28;20053;-70
2023/08/03 03:53:39;;;;;;;0.00;0.00;;;16.50;93.20;;;;;;5011607;28;20169;-70
2023/08/03 03:56:05;;;;;;;0.00;0.00;;;16.40;93.20;;;;;;5005848;28;20462;-70
2023/08/03 03:58:30;;;;;;;0.03;0.03;;;16.30;93.20;;;;;;5006177;28;20045;-70
2023/08/03 04:00:56;;;;;;;0.00;0.00;;;16.30;93.20;;;;;;4992007;28;20100;-70
2023/08/03 04:03:24;;;;;;;0.00;0.00;;;16.20;93.30;;;;;;5011511;28;20062;-70
2023/08/03 04:05:49;;;;;;;0.00;0.00;;;16.20;93.20;;;;;;5011598;28;20073;-70
2023/08/03 04:08:15;;;;;;;0.00;0.00;;;16.20;93.30;;;;;;5008301;28;20521;-70
2023/08/03 04:10:40;;;;;;;0.00;0.00;;;16.20;93.30;;;;;;4993197;28;20038;-70
2023/08/03 04:13:06;;;;;;;0.00;0.00;;;16.20;93.40;;;;;;5009540;28;20108;-70
2023/08/03 04:15:31;;;;;;;0.00;0.00;;;16.30;93.40;;;;;;5010964;28;20042;-69
2023/08/03 04:17:57;;;;;;;0.00;0.00;;;16.20;93.60;;;;;;5010664;28;20038;-70
2023/08/03 04:20:22;;;;;;;0.00;0.00;;;16.20;93.60;;;;;;5011091;28;20092;-70
2023/08/03 04:22:48;;;;;;;0.00;0.00;;;16.20;93.60;;;;;;5011006;28;20489;-70
2023/08/03 04:25:13;;;;;;;0.03;0.03;;;16.20;93.60;;;;;;5010070;28;20081;-69
2023/08/03 04:27:39;;;;;;;0.00;0.00;;;16.30;93.60;;;;;;5008840;28;20068;-69
2023/08/03 04:30:05;;;;;;;0.00;0.00;;;16.20;93.50;;;;;;5009296;28;20045;-70
2023/08/03 04:32:30;;;;;;;0.00;0.00;;;16.20;93.60;;;;;;5010737;28;20050;-71
2023/08/03 04:34:56;;;;;;;0.00;0.00;;;16.20;93.60;;;;;;5003420;28;20104;-70
2023/08/03 04:37:21;;;;;;;0.00;0.00;;;16.30;93.70;;;;;;4997801;28;20050;-70
2023/08/03 04:39:49;;;;;;;0.00;0.00;;;16.30;93.70;;;;;;5001475;28;20057;-69
2023/08/03 04:42:14;;;;;;;0.00;0.00;;;16.30;93.70;;;;;;4978093;28;20057;-69
2023/08/03 04:44:40;;;;;;;0.00;0.00;;;16.30;93.70;;;;;;5009014;28;20054;-70
2023/08/03 04:47:05;;;;;;;0.00;0.00;;;16.30;93.80;;;;;;5004417;28;20099;-69
2023/08/03 04:49:31;;;;;;;0.32;0.32;;;16.20;93.70;;;;;;5003553;28;20038;-71
2023/08/03 04:51:56;;;;;;;0.00;0.00;;;16.30;93.70;;;;;;4990731;28;20046;-70
2023/08/03 04:54:22;;;;;;;0.05;0.05;;;16.30;93.80;;;;;;5001014;28;20137;-70
2023/08/03 04:56:48;;;;;;;0.03;0.03;;;16.30;93.90;;;;;;5004866;28;20038;-72
2023/08/03 04:59:13;;;;;;;0.00;0.00;;;16.30;94.30;;;;;;5005462;28;20034;-71
2023/08/03 05:01:39;;;;;;;0.10;0.10;;;16.50;94.30;;;;;;5007054;28;20814;-77
2023/08/03 05:04:04;;;;;;;0.70;0.65;;;16.50;94.00;;;;;;5006552;28;20096;-76
2023/08/03 05:06:30;;;;;;;0.00;0.00;;;16.80;94.50;;;;;;5004237;28;20042;-73
2023/08/03 05:08:56;;;;;;;0.00;0.00;;;16.90;94.00;;;;;;5003510;28;20042;-68
2023/08/03 05:11:21;;;;;;;0.10;0.10;;;16.90;93.50;;;;;;5002464;28;20132;-69
2023/08/03 05:13:47;;;;;;;0.00;0.00;;;16.90;93.30;;;;;;4989469;28;20058;-69
2023/08/03 05:16:12;;;;;;;0.00;0.00;;;17.00;93.30;;;;;;4989139;28;20495;-69
2023/08/03 05:18:38;;;;;;;0.00;0.00;;;16.90;93.00;;;;;;4990193;28;20046;-69
2023/08/03 05:21:03;;;;;;;0.00;0.00;;;16.80;93.00;;;;;;4989508;28;20061;-69
2023/08/03 05:23:29;;;;;;;0.00;0.00;;;16.80;92.90;;;;;;4990298;28;20060;-69
2023/08/03 05:25:58;;;;;;;0.00;0.00;;;16.70;92.90;;;;;;4990388;28;20050;-69
2023/08/03 05:28:25;;;;;;;0.00;0.00;;;16.70;92.90;;;;;;4990037;28;20038;-69
2023/08/03 05:30:51;;;;;;;0.00;0.00;;;16.70;93.10;;;;;;4990661;28;20416;-69
2023/08/03 05:33:17;;;;;;;0.00;0.00;;;16.70;93.00;;;;;;4990368;28;20507;-69
2023/08/03 05:35:44;;;;;;;0.00;0.00;;;16.70;93.10;;;;;;4990428;28;20141;-69
2023/08/03 05:38:10;;;;;;;0.00;0.00;;;16.60;93.00;;;;;;4989542;28;20046;-69
2023/08/03 05:40:39;;;;;;;0.00;0.00;;;16.60;93.10;;;;;;4990571;28;20053;-69
2023/08/03 05:43:10;;;;;;;0.00;0.00;;;16.70;93.10;;;;;;4989749;28;20057;-69
2023/08/03 05:45:41;;;;;;;0.00;0.00;;;16.70;93.10;;;;;;4989984;28;20053;-69
2023/08/03 05:48:20;;;;;;;0.00;0.00;;;16.70;93.10;;;;;;4990258;28;20088;-69
2023/08/03 05:50:49;;;;;;;0.10;0.10;;;16.80;93.20;;;;;;4988989;28;20046;-69
2023/08/03 05:53:15;;;;;;;0.00;0.00;;;16.80;93.20;;;;;;4990000;28;20038;-69
2023/08/03 05:55:41;;;;;;;0.00;0.00;;;16.90;93.20;;;;;;4990162;28;20069;-69
2023/08/03 05:58:13;;;;;;;0.00;0.00;;;16.90;93.40;;;;;;4990084;28;20042;-69
2023/08/03 06:00:42;;;;;;;;;;;17.00;93.40;;;;;;4990657;28;20077;-69
2023/08/03 06:03:13;;;;;;;0.00;0.00;;;17.00;93.60;;;;;;4989793;28;20276;-69
2023/08/03 06:05:38;;;;;;;0.00;0.00;;;17.00;93.70;;;;;;4990217;28;20086;-69
2023/08/03 06:08:24;;;;;;;0.10;0.10;;;17.10;93.70;;;;;;4989937;28;20089;-69
2023/08/03 06:10:51;;;;;;;0.00;0.00;;;17.10;93.90;;;;;;4990626;28;20104;-69
2023/08/03 06:13:19;;;;;;;0.00;0.00;;;17.10;94.00;;;;;;4989966;28;20582;-69
2023/08/03 06:15:46;;;;;;;0.00;0.00;;;17.10;94.00;;;;;;4989946;28;20042;-69
2023/08/03 06:18:15;;;;;;;0.00;0.00;;;17.20;93.90;;;;;;4988464;28;20046;-69
2023/08/03 06:20:51;;;;;;;0.00;0.00;;;17.30;94.20;;;;;;4989799;28;20042;-69
2023/08/03 06:23:19;;;;;;;0.00;0.00;;;17.20;94.10;;;;;;4989929;28;20066;-69
2023/08/03 06:25:50;;;;;;;0.00;0.00;;;17.30;94.10;;;;;;4988474;28;20046;-69
2023/08/03 06:28:18;;;;;;;0.08;0.08;;;17.30;94.10;;;;;;4989527;28;20050;-69
2023/08/03 06:30:45;;;;;;;0.00;0.00;;;17.40;94.10;;;;;;4989762;28;20507;-69
2023/08/03 06:33:14;;;;;;;0.00;0.00;;;17.50;94.20;;;;;;4989754;28;20034;-69
2023/08/03 06:35:42;;;;;;;0.15;0.15;;;17.50;94.20;;;;;;4989907;28;20158;-69
2023/08/03 06:38:14;;;;;;;0.52;0.52;;;17.50;94.10;;;;;;4989676;28;20510;-69
2023/08/03 06:40:41;;;;;;;0.00;0.00;;;17.60;93.90;;;;;;4989611;28;20419;-69
2023/08/03 06:43:09;;;;;;;0.00;0.00;;;17.50;93.80;;;;;;4989456;28;20042;-69
2023/08/03 06:45:35;;;;;;;0.00;0.00;;;17.50;93.30;;;;;;4989812;28;20038;-69
2023/08/03 06:48:01;;;;;;;0.00;0.00;;;17.50;93.40;;;;;;4988318;28;20052;-69
2023/08/03 06:50:29;;;;;;;0.00;0.00;;;17.50;92.60;;;;;;4989727;28;20073;-69
2023/08/03 06:52:56;;;;;;;0.00;0.00;;;17.50;92.80;;;;;;4989393;28;20050;-69
2023/08/03 06:55:21;;;;;;;0.00;0.00;;;17.70;92.90;;;;;;4989378;28;20129;-69
2023/08/03 06:57:47;;;;;;;0.00;0.00;;;17.70;92.80;;;;;;4990581;28;20551;-69
2023/08/03 07:00:13;;;;;;;0.00;0.00;;;17.80;92.70;;;;;;4992872;28;20050;-69
2023/08/03 07:02:39;;;;;;;0.10;0.10;;;17.90;92.60;;;;;;4993265;28;20085;-69
2023/08/03 07:05:05;;;;;;;0.00;0.00;;;17.90;92.10;;;;;;4993034;28;20100;-69
2023/08/03 07:07:31;;;;;;;0.00;0.00;;;17.80;91.50;;;;;;4992887;28;20125;-69
2023/08/03 07:09:59;;;;;;;0.00;0.00;;;17.90;91.80;;;;;;4975796;28;20046;-69
2023/08/03 07:12:25;;;;;;;0.00;0.00;;;18.00;91.50;;;;;;4992486;28;20053;-69
2023/08/03 07:14:50;;;;;;;0.00;0.00;;;18.10;91.60;;;;;;4993126;28;20046;-69
2023/08/03 07:17:16;;;;;;;0.00;0.00;;;18.20;91.60;;;;;;4992901;28;20379;-69
2023/08/03 07:19:42;;;;;;;0.00;0.00;;;18.30;91.50;;;;;;4992645;28;20078;-69
2023/08/03 07:22:08;;;;;;;0.03;0.03;;;18.30;90.80;;;;;;4992810;28;20053;-69
2023/08/03 07:24:34;;;;;;;0.00;0.00;;;18.30;89.70;;;;;;4992559;28;20050;-68
2023/08/03 07:27:00;;;;;;;0.00;0.00;;;18.30;89.70;;;;;;4992866;28;20057;-68
2023/08/03 07:29:29;;;;;;;0.05;0.05;;;18.20;89.20;;;;;;4992738;28;20050;-69
2023/08/03 07:31:55;;;;;;;0.65;0.65;;;18.10;88.90;;;;;;4992406;28;20051;-69
2023/08/03 07:34:21;;;;;;;3.63;1.08;;;18.10;88.60;;;;;;4992627;28;20070;-68
2023/08/03 07:36:50;;;;;;;0.00;0.00;;;18.00;89.00;;;;;;4992698;28;20038;-69
2023/08/03 07:39:15;;;;;;;0.10;0.10;;;18.00;89.10;;;;;;4992484;28;20043;-68
2023/08/03 07:41:41;;;;;;;0.00;0.00;;;17.90;89.10;;;;;;4992476;28;20046;-69
2023/08/03 07:44:07;;;;;;;0.00;0.00;;;17.90;89.50;;;;;;4992007;28;20483;-69
2023/08/03 07:46:32;;;;;;;0.00;0.00;;;18.10;89.20;;;;;;4992507;28;20049;-69
2023/08/03 07:48:58;;;;;;;0.00;0.00;;;18.10;89.20;;;;;;4992337;28;20049;-69
2023/08/03 07:51:23;;;;;;;0.00;0.00;;;18.30;89.30;;;;;;4992284;28;20049;-69
2023/08/03 07:53:49;;;;;;;0.85;0.70;;;18.50;89.40;;;;;;4992270;28;20046;-69
2023/08/03 07:56:19;;;;;;;0.00;0.00;;;18.60;88.10;;;;;;4991786;28;20043;-69
2023/08/03 07:58:47;;;;;;;0.00;0.00;;;18.60;88.10;;;;;;4992168;28;20042;-69
2023/08/03 08:01:12;;;;;;;0.03;0.03;;;18.70;88.30;;;;;;4992203;28;20049;-69
2023/08/03 08:03:39;;;;;;;0.00;0.00;;;18.70;88.30;;;;;;4991904;28;20117;-69
2023/08/03 08:06:12;;;;;;;0.00;0.00;;;18.60;87.20;;;;;;4991871;28;20042;-69
2023/08/03 08:08:38;;;;;;;0.00;0.00;;;18.50;86.00;;;;;;4991721;28;20050;-69
2023/08/03 08:11:04;;;;;;;0.00;0.00;;;18.50;86.80;;;;;;4991624;28;20104;-69
2023/08/03 08:13:31;;;;;;;0.00;0.00;;;18.50;87.20;;;;;;4992092;28;20480;-69
2023/08/03 08:16:00;;;;;;;0.00;0.00;;;18.60;87.60;;;;;;4991937;28;20415;-69
2023/08/03 08:18:30;;;;;;;0.00;0.00;;;18.70;87.30;;;;;;4991743;28;20419;-69
2023/08/03 08:21:02;;;;;;;0.00;0.00;;;18.80;86.90;;;;;;4991712;28;20034;-69
2023/08/03 08:23:28;;;;;;;0.10;0.10;;;18.90;86.70;;;;;;4991782;28;20558;-68
2023/08/03 08:25:53;;;;;;;0.00;0.00;;;18.80;85.60;;;;;;4991740;28;20161;-68
2023/08/03 08:28:19;;;;;;;0.10;0.10;;;18.80;84.80;;;;;;4991795;28;20054;-68
2023/08/03 08:30:45;;;;;;;0.00;0.00;;;18.90;85.90;;;;;;4991527;28;20045;-69
2023/08/03 08:33:15;;;;;;;0.20;0.20;;;18.90;85.00;;;;;;4973852;28;20042;-68
2023/08/03 08:35:41;;;;;;;0.00;0.00;;;18.90;84.90;;;;;;4991549;28;20050;-69
2023/08/03 08:38:09;;;;;;;0.00;0.00;;;19.00;85.40;;;;;;4991486;28;20043;-69
2023/08/03 08:40:36;;;;;;;0.52;0.52;;;19.10;85.20;;;;;;4991667;28;20622;-68
2023/08/03 08:43:02;;;;;;;0.20;0.20;;;19.00;84.40;;;;;;4991405;28;20578;-69
2023/08/03 08:45:30;;;;;;;0.00;0.00;;;19.10;84.00;;;;;;4991185;28;20057;-69
2023/08/03 08:47:55;;;;;;;0.00;0.00;;;19.10;84.00;;;;;;4991524;28;20224;-68
2023/08/03 08:50:21;;;;;;;0.00;0.00;;;19.30;84.20;;;;;;4991064;28;20129;-69
2023/08/03 08:52:47;;;;;;;0.00;0.00;;;19.40;84.00;;;;;;4991206;28;20046;-69
2023/08/03 08:55:14;;;;;;;0.55;0.55;;;19.40;82.80;;;;;;4991084;28;20050;-69
2023/08/03 08:57:40;;;;;;;0.00;0.00;;;19.40;83.30;;;;;;4990010;28;20408;-69
2023/08/03 09:00:06;;;;;;;0.00;0.00;;;19.50;83.10;;;;;;4990692;28;20043;-69
2023/08/03 09:02:32;;;;;;;0.65;0.65;;;19.50;83.30;;;;;;4990997;28;20047;-69
2023/08/03 09:05:23;;;;;;;0.00;0.00;;;19.70;83.60;;;;;;4991000;28;20052;-69
2023/08/03 09:08:07;;;;;;;0.00;0.00;;;19.60;82.60;;;;;;4983533;28;20515;-69
2023/08/03 09:10:53;;;;;;;0.00;0.00;;;19.60;82.80;;;;;;4990760;28;20042;-69
2023/08/03 09:13:31;;;;;;;0.00;0.00;;;19.70;82.60;;;;;;4991113;28;20042;-69
2023/08/03 09:15:58;;;;;;;0.00;0.00;;;19.80;83.30;;;;;;4990906;28;20046;-69
2023/08/03 09:18:27;;;;;;;0.00;0.00;;;19.70;83.00;;;;;;4990592;28;20631;-69
2023/08/03 09:21:19;;;;;;;0.20;0.20;;;19.60;82.70;;;;;;4990445;28;20437;-69
2023/08/03 09:23:46;;;;;;;0.00;0.00;;;19.70;84.10;;;;;;4990363;28;20076;-69
2023/08/03 09:26:11;;;;;;;0.03;0.03;;;19.60;82.60;;;;;;4990233;28;20137;-69
2023/08/03 09:28:40;;;;;;;0.00;0.00;;;19.50;82.70;;;;;;4990819;28;20133;-69
2023/08/03 09:31:06;;;;;;;0.00;0.00;;;19.50;83.40;;;;;;4990434;28;20038;-69
2023/08/03 09:33:33;;;;;;;0.00;0.00;;;19.50;83.20;;;;;;4990614;28;20104;-69
2023/08/03 09:36:03;;;;;;;0.00;0.00;;;19.60;83.50;;;;;;4990120;28;20101;-69
2023/08/03 09:38:30;;;;;;;0.00;0.00;;;19.60;82.70;;;;;;4990590;28;20133;-69
2023/08/03 09:40:55;;;;;;;0.00;0.00;;;19.60;82.40;;;;;;4990666;28;20038;-69
2023/08/03 09:43:24;;;;;;;0.05;0.05;;;19.50;82.10;;;;;;4989220;28;20054;-69
2023/08/03 09:45:51;;;;;;;0.00;0.00;;;19.60;82.60;;;;;;4989549;28;20093;-69
2023/08/03 09:48:19;;;;;;;0.00;0.00;;;19.70;82.60;;;;;;4990375;28;20050;-68
2023/08/03 09:50:51;;;;;;;0.00;0.00;;;19.80;82.70;;;;;;4990239;28;20137;-69
2023/08/03 09:53:21;;;;;;;0.10;0.10;;;20.00;81.50;;;;;;4990370;28;20849;-69
2023/08/03 09:55:53;;;;;;;0.00;0.00;;;19.90;81.00;;;;;;4990302;28;20554;-69
2023/08/03 09:58:22;;;;;;;0.00;0.00;;;19.70;80.10;;;;;;4989932;28;20038;-69
2023/08/03 10:00:50;;;;;;;0.00;0.00;;;19.70;81.80;;;;;;4990203;28;20562;-69
2023/08/03 10:03:19;;;;;;;0.00;0.00;;;19.80;81.40;;;;;;4990228;28;20050;-70
2023/08/03 10:05:51;;;;;;;0.00;0.00;;;19.80;81.80;;;;;;4990123;28;20089;-69
2023/08/03 10:08:42;;;;;;;0.00;0.00;;;19.80;81.50;;;;;;4989716;28;20042;-70
2023/08/03 10:11:11;;;;;;;0.00;0.00;;;20.00;82.10;;;;;;4990178;28;20101;-70
2023/08/03 10:13:40;;;;;;;0.00;0.00;;;20.10;81.20;;;;;;4990317;28;20089;-69
2023/08/03 10:16:06;;;;;;;0.00;0.00;;;20.00;79.30;;;;;;4990007;28;20492;-70
2023/08/03 10:18:35;;;;;;;0.95;0.88;;;20.00;79.80;;;;;;4989883;28;20125;-69
2023/08/03 10:21:02;;;;;;;0.00;0.00;;;19.80;80.40;;;;;;4989782;28;20042;-70
2023/08/03 10:23:28;;;;;;;0.00;0.00;;;19.90;81.50;;;;;;4990106;28;20125;-69
2023/08/03 10:26:01;;;;;;;0.00;0.00;;;19.90;81.70;;;;;;4990086;28;20418;-69
2023/08/03 10:28:45;;;;;;;0.00;0.00;;;19.80;81.60;;;;;;4989871;28;20054;-70
2023/08/03 10:31:12;;;;;;;0.00;0.00;;;19.80;81.70;;;;;;4972383;28;20045;-69
2023/08/03 10:33:46;;;;;;;2.17;1.27;;;19.80;81.40;;;;;;4993750;28;20054;-69
2023/08/03 10:36:27;;;;;;;0.00;0.00;;;19.70;81.50;;;;;;4993710;28;20042;-69
2023/08/03 10:38:57;;;;;;;0.00;0.00;;;19.70;82.20;;;;;;4993915;28;20039;-70
2023/08/03 10:41:28;;;;;;;0.00;0.00;;;19.60;81.40;;;;;;4993700;28;20108;-69
2023/08/03 10:44:14;;;;;;;0.00;0.00;;;19.50;81.40;;;;;;4993645;28;20046;-69
2023/08/03 10:46:50;;;;;;;0.00;0.00;;;19.50;82.80;;;;;;4992480;28;20050;-69
2023/08/03 10:49:19;;;;;;;0.00;0.00;;;19.50;82.70;;;;;;4993485;28;20499;-70
2023/08/03 10:51:52;;;;;;;0.00;0.00;;;19.60;82.70;;;;;;4993182;28;20062;-69
2023/08/03 10:54:20;;;;;;;0.00;0.00;;;19.70;82.80;;;;;;4993256;28;20380;-69
2023/08/03 10:57:09;;;;;;;0.00;0.00;;;19.80;82.60;;;;;;4992986;28;20054;-69
2023/08/03 10:59:35;;;;;;;0.00;0.00;;;19.80;82.20;;;;;;4992037;28;20563;-69
2023/08/03 11:02:15;;;;;;;0.00;0.00;;;19.80;82.30;;;;;;4993196;28;20042;-69
2023/08/03 11:04:42;;;;;;;0.00;0.00;;;19.90;81.60;;;;;;4992821;28;20491;-69
2023/08/03 11:07:14;;;;;;;0.00;0.00;;;19.90;81.30;;;;;;4992981;28;20099;-69
2023/08/03 11:09:40;;;;;;;0.10;0.10;;;20.00;81.40;;;;;;4993210;28;20046;-69
2023/08/03 11:12:07;;;;;;;0.00;0.00;;;20.00;81.00;;;;;;4992734;28;20053;-69
2023/08/03 11:14:35;;;;;;;0.00;0.00;;;20.20;80.90;;;;;;4992849;28;20133;-69
2023/08/03 11:17:01;;;;;;;0.10;0.10;;;20.30;79.40;;;;;;4992964;28;20134;-69
2023/08/03 11:19:32;;;;;;;0.13;0.13;;;20.40;79.60;;;;;;4992880;28;20146;-70
2023/08/03 11:21:59;;;;;;;0.00;0.00;;;20.30;80.90;;;;;;4992848;28;20050;-69
2023/08/03 11:24:28;;;;;;;0.00;0.00;;;20.30;81.10;;;;;;4992024;28;20063;-69
2023/08/03 11:26:54;;;;;;;0.00;0.00;;;20.10;81.60;;;;;;4993088;28;20418;-69
2023/08/03 11:29:19;;;;;;;0.00;0.00;;;20.00;82.40;;;;;;4992622;28;20042;-69
2023/08/03 11:31:45;;;;;;;0.00;0.00;;;20.00;82.70;;;;;;4992648;28;20039;-69
2023/08/03 11:34:11;;;;;;;0.00;0.00;;;20.10;84.10;;;;;;4992179;28;20042;-68
2023/08/03 11:36:36;;;;;;;0.00;0.00;;;20.30;83.90;;;;;;4992859;28;20042;-68
2023/08/03 11:39:02;;;;;;;3.63;1.55;;;20.30;82.80;;;;;;4992448;28;20050;-69
2023/08/03 11:41:28;;;;;;;0.03;0.03;;;20.20;82.20;;;;;;4992300;28;20050;-68
2023/08/03 11:43:53;;;;;;;0.00;0.00;;;20.10;82.00;;;;;;4991559;28;20050;-67
2023/08/03 11:46:26;;;;;;;0.03;0.03;;;20.00;82.40;;;;;;4992111;28;20105;-68
2023/08/03 11:48:56;;;;;;;0.40;0.35;;;19.90;82.20;;;;;;4992248;28;20046;-69
2023/08/03 11:51:30;;;;;;;0.70;0.70;;;19.70;82.90;;;;;;4992224;28;20057;-69
2023/08/03 11:53:56;;;;;;;0.00;0.00;;;19.60;83.30;;;;;;4992492;28;20096;-69
2023/08/03 11:56:21;;;;;;;0.20;0.20;;;19.60;83.00;;;;;;4992271;28;20526;-69
2023/08/03 11:58:47;;;;;;;0.10;0.10;;;19.40;83.70;;;;;;4991597;28;20112;-69
2023/08/03 12:01:12;;;;;;;0.90;0.70;;;19.30;83.90;;;;;;4992232;28;20388;-69
2023/08/03 12:03:38;;;;;;;0.00;0.00;;;19.30;83.60;;;;;;4992153;28;20491;-69
2023/08/03 12:06:08;;;;;;;0.00;0.00;;;19.20;82.80;;;;;;4991783;28;20077;-69
2023/08/03 12:08:45;;;;;;;0.00;0.00;;;19.30;82.90;;;;;;4992125;28;20480;-69
2023/08/03 12:11:14;;;;;;;0.00;0.00;;;19.30;83.10;;;;;;4991534;28;20055;-69
2023/08/03 12:13:40;;;;;;;0.22;0.22;;;19.10;83.70;;;;;;4992080;28;20100;-69
2023/08/03 12:16:05;;;;;;;0.00;0.00;;;19.10;84.40;;;;;;4991846;28;20503;-69
2023/08/03 12:18:31;;;;;;;0.00;0.00;;;19.00;84.70;;;;;;4992010;28;20162;-69
2023/08/03 12:20:57;;;;;;;0.03;0.03;;;19.00;85.50;;;;;;4991767;28;20133;-68
2023/08/03 12:23:22;;;;;;;0.00;0.00;;;18.70;85.50;;;;;;4990442;28;20136;-69
2023/08/03 12:25:48;;;;;;;0.70;0.70;;;18.60;85.60;;;;;;4991611;28;20145;-69
2023/08/03 12:28:14;;;;;;;0.00;0.00;;;18.50;86.20;;;;;;4991438;28;20504;-69
2023/08/03 12:30:40;;;;;;;0.00;0.00;;;18.40;86.40;;;;;;4991610;28;20049;-68
2023/08/03 12:33:08;;;;;;;0.90;0.52;;;18.40;86.50;;;;;;4991264;28;20043;-68
2023/08/03 12:35:34;;;;;;;0.00;0.00;;;18.50;86.20;;;;;;4991209;28;20065;-68
2023/08/03 12:37:59;;;;;;;0.10;0.10;;;18.50;85.90;;;;;;4991588;28;20057;-69
2023/08/03 12:40:27;;;;;;;0.00;0.00;;;18.60;85.80;;;;;;4991192;28;20042;-69
2023/08/03 12:42:52;;;;;;;0.00;0.00;;;18.60;85.80;;;;;;4991431;28;20034;-68
2023/08/03 12:45:18;;;;;;;0.10;0.10;;;18.60;85.10;;;;;;4991426;28;20100;-68
2023/08/03 12:47:45;;;;;;;1.80;0.63;;;18.70;85.00;;;;;;4991136;28;20558;-68